createdAt,value
2018-05-03T21:57:51.416Z,19.30
2018-05-03T21:58:51.196Z,19.20
2018-05-03T21:59:51.158Z,19.40
2018-05-03T22:00:51.164Z,25.10
2018-05-03T22:01:51.137Z,22.90
2018-05-03T22:02:51.118Z,23.20
2018-05-03T22:03:51.165Z,23.80
2018-05-03T22:04:51.077Z,21.60
2018-05-03T22:05:51.042Z,25.30
2018-05-03T22:06:51.009Z,25.80
2018-05-03T22:07:51.014Z,27.50
2018-05-03T22:08:51.001Z,24.00
2018-05-03T22:09:50.976Z,25.90
2018-05-03T22:10:50.929Z,22.90
2018-05-03T22:11:50.937Z,25.60
2018-05-03T22:12:50.900Z,27.40
2018-05-03T22:13:50.918Z,27.40
2018-05-03T22:14:50.879Z,23.10
2018-05-03T22:15:50.863Z,27.70
2018-05-03T22:16:50.814Z,27.80
2018-05-03T22:17:50.823Z,26.40
2018-05-03T22:18:50.775Z,29.90
2018-05-03T22:19:50.757Z,25.60
2018-05-03T22:20:50.760Z,28.40
2018-05-03T22:21:50.744Z,29.50
2018-05-03T22:22:50.716Z,30.90
2018-05-03T22:23:50.673Z,28.50
2018-05-03T22:24:50.683Z,30.10
2018-05-03T22:25:50.711Z,27.70
2018-05-03T22:26:50.621Z,27.70
2018-05-03T22:27:50.614Z,32.70
2018-05-03T22:28:50.592Z,31.90
2018-05-03T22:29:50.591Z,31.10
2018-05-03T22:30:50.552Z,31.40
2018-05-03T22:31:50.548Z,30.00
2018-05-03T22:32:50.533Z,28.50
2018-05-03T22:33:50.487Z,30.10
2018-05-03T22:34:50.466Z,33.90
2018-05-03T22:35:50.476Z,34.50
2018-05-03T22:36:50.429Z,36.80
2018-05-03T22:37:50.421Z,32.70
2018-05-03T22:38:50.404Z,32.40
2018-05-03T22:39:50.371Z,34.80
2018-05-03T22:40:50.440Z,33.70
2018-05-03T22:41:50.331Z,32.50
2018-05-03T22:42:50.330Z,30.40
2018-05-03T22:43:50.299Z,33.80
2018-05-03T22:44:50.271Z,37.00
2018-05-03T22:45:50.257Z,33.70
2018-05-03T22:46:50.233Z,31.70
2018-05-03T22:47:50.218Z,37.30
2018-05-03T22:48:50.267Z,36.30
2018-05-03T22:49:50.188Z,35.40
2018-05-03T22:50:50.156Z,33.90
2018-05-03T22:51:50.165Z,41.00
2018-05-03T22:52:50.116Z,35.50
2018-05-03T22:53:50.104Z,36.90
2018-05-03T22:54:50.162Z,35.50
2018-05-03T22:55:50.069Z,36.30
2018-05-03T22:56:50.050Z,41.90
2018-05-03T22:57:50.044Z,37.00
2018-05-03T22:58:50.028Z,36.10
2018-05-03T22:59:49.990Z,33.20
2018-05-03T23:00:49.961Z,39.70
2018-05-03T23:01:49.944Z,39.40
2018-05-03T23:02:49.919Z,37.00
2018-05-03T23:03:49.905Z,36.40
2018-05-03T23:04:49.879Z,39.10
2018-05-03T23:05:49.887Z,36.00
2018-05-03T23:06:49.840Z,38.50
2018-05-03T23:07:49.821Z,36.40
2018-05-03T23:08:49.797Z,39.40
2018-05-03T23:09:49.775Z,33.70
2018-05-03T23:10:49.789Z,35.60
2018-05-03T23:11:49.835Z,34.50
2018-05-03T23:12:49.726Z,33.60
2018-05-03T23:13:49.731Z,38.00
2018-05-03T23:14:49.686Z,37.80
2018-05-03T23:15:49.664Z,31.90
2018-05-03T23:16:49.670Z,31.60
2018-05-03T23:17:49.653Z,34.10
2018-05-03T23:18:49.639Z,30.90
2018-05-03T23:19:49.590Z,35.90
2018-05-03T23:20:49.565Z,30.40
2018-05-03T23:21:49.568Z,31.40
2018-05-03T23:22:49.556Z,31.30
2018-05-03T23:23:49.531Z,33.50
2018-05-03T23:24:49.481Z,32.40
2018-05-03T23:25:49.493Z,31.10
2018-05-03T23:26:49.449Z,31.90
2018-05-03T23:27:49.457Z,29.70
2018-05-03T23:28:49.408Z,33.00
2018-05-03T23:29:49.387Z,29.30
2018-05-03T23:30:49.369Z,31.80
2018-05-03T23:31:49.349Z,30.80
2018-05-03T23:32:49.329Z,28.30
2018-05-03T23:33:49.313Z,31.20
2018-05-03T23:34:49.289Z,29.20
2018-05-03T23:35:49.279Z,30.00
2018-05-03T23:36:49.273Z,27.40
2018-05-03T23:37:49.258Z,32.00
2018-05-03T23:38:49.206Z,31.90
2018-05-03T23:39:49.220Z,28.50
2018-05-03T23:40:49.182Z,35.20
2018-05-03T23:41:49.172Z,32.20
2018-05-03T23:42:49.153Z,31.20
2018-05-03T23:43:49.108Z,30.00
2018-05-03T23:44:49.092Z,28.70
2018-05-03T23:45:49.079Z,35.30
2018-05-03T23:46:49.081Z,33.70
2018-05-03T23:47:49.035Z,32.40
2018-05-03T23:48:49.020Z,31.10
2018-05-03T23:49:49.013Z,32.40
2018-05-03T23:50:48.981Z,32.30
